Time;durP1;ratioP1;P1;durP2;ratioP2;P2;SDS_P1;SDS_P2;PMS_P1;PMS_P2;Temp;Humidity;BMP_temperature;BMP_pressure;BME280_temperature;BME280_humidity;BME280_pressure;Samples;Min_cycle;Max_cycle;Signal;HPM_P1;HPM_P2
2023/05/08 00:01:31;;;;;;;2.10;1.20;;;;;;;20.54;67.52;100585.97;5051929;28;20178;-62
2023/05/08 00:03:56;;;;;;;2.57;1.50;;;;;;;20.53;67.94;100584.28;5073980;28;20722;-62
2023/05/08 00:06:21;;;;;;;2.90;1.90;;;;;;;20.51;67.98;100581.00;5069345;28;20433;-62
2023/05/08 00:08:47;;;;;;;2.50;1.50;;;;;;;20.53;67.91;100578.56;5070755;28;20207;-62
2023/05/08 00:11:12;;;;;;;2.67;1.53;;;;;;;20.53;68.33;100587.16;5089725;28;20502;-62
2023/05/08 00:13:40;;;;;;;2.10;1.23;;;;;;;20.53;68.31;100583.50;5081559;28;20560;-62
2023/05/08 00:16:08;;;;;;;2.53;1.43;;;;;;;20.52;68.25;100582.66;5071347;28;20265;-61
2023/05/08 00:18:36;;;;;;;3.10;1.60;;;;;;;20.52;68.09;100578.97;5069336;28;20452;-62
2023/05/08 00:21:02;;;;;;;2.90;1.43;;;;;;;20.52;68.26;100582.66;5070678;28;20447;-62
2023/05/08 00:23:27;;;;;;;2.67;1.53;;;;;;;20.52;68.09;100582.66;5069438;28;20413;-62
2023/05/08 00:25:52;;;;;;;4.73;1.40;;;;;;;20.53;67.96;100586.34;5069754;28;20179;-62
2023/05/08 00:28:18;;;;;;;3.17;1.60;;;;;;;20.53;68.02;100589.22;5069871;28;20163;-62
2023/05/08 00:30:43;;;;;;;2.63;1.50;;;;;;;20.52;67.75;100590.44;5071472;28;20195;-62
2023/05/08 00:33:10;;;;;;;2.63;1.87;;;;;;;20.52;68.16;100581.84;5069273;28;20171;-62
2023/05/08 00:35:35;;;;;;;2.63;1.57;;;;;;;20.52;67.96;100582.66;5069983;28;20179;-62
2023/05/08 00:38:01;;;;;;;3.73;1.40;;;;;;;20.52;67.86;100581.84;5072051;28;20873;-62
2023/05/08 00:40:26;;;;;;;2.73;1.67;;;;;;;20.52;68.38;100576.09;5079896;28;20623;-62
2023/05/08 00:42:52;;;;;;;3.17;1.47;;;;;;;20.52;68.07;100581.84;5069128;28;20654;-62
2023/05/08 00:45:17;;;;;;;2.20;1.30;;;;;;;20.52;68.17;100581.84;5075980;28;20190;-62
2023/05/08 00:47:43;;;;;;;2.50;1.43;;;;;;;20.51;67.76;100581.00;5070725;28;20214;-62
2023/05/08 00:50:09;;;;;;;2.23;1.10;;;;;;;20.52;67.65;100581.84;5088686;28;20174;-62
2023/05/08 00:52:34;;;;;;;3.53;1.73;;;;;;;20.51;68.15;100577.28;5065138;28;20187;-63
2023/05/08 00:55:01;;;;;;;3.00;1.73;;;;;;;20.51;68.20;100585.91;5070144;28;20329;-62
2023/05/08 00:57:27;;;;;;;2.00;1.40;;;;;;;20.51;67.88;100583.88;5050107;28;20187;-62
2023/05/08 00:59:53;;;;;;;2.60;1.30;;;;;;;20.52;67.99;100584.72;5070875;28;20508;-63
2023/05/08 01:02:19;;;;;;;2.63;1.40;;;;;;;20.50;67.96;100587.97;5053186;28;20512;-63
2023/05/08 01:04:45;;;;;;;2.73;1.63;;;;;;;20.51;67.98;100585.91;5093407;28;20634;-62
2023/05/08 01:07:10;;;;;;;2.30;1.30;;;;;;;20.50;67.73;100596.56;5088859;28;20458;-62
2023/05/08 01:09:36;;;;;;;2.57;1.50;;;;;;;20.51;67.83;100595.34;5093341;28;20174;-62
2023/05/08 01:12:27;;;;;;;2.27;1.57;;;;;;;20.50;67.56;100596.56;5073299;28;20179;-63
2023/05/08 01:14:59;;;;;;;2.20;1.30;;;;;;;20.51;68.15;100595.34;5069195;28;20269;-62
2023/05/08 01:17:49;;;;;;;2.80;1.37;;;;;;;20.51;67.51;100600.25;5077328;28;20917;-62
2023/05/08 01:20:22;;;;;;;2.00;1.30;;;;;;;20.50;67.94;100596.56;5075467;28;20404;-62
2023/05/08 01:23:23;;;;;;;3.10;1.40;;;;;;;20.49;68.19;100597.78;5057065;28;20502;-62
2023/05/08 01:26:15;;;;;;;1.87;1.00;;;;;;;20.49;68.12;100599.81;5019033;28;20421;-62
2023/05/08 01:28:55;;;;;;;2.30;1.37;;;;;;;20.49;67.93;100597.78;5074301;28;20433;-62
2023/05/08 01:31:39;;;;;;;4.87;1.40;;;;;;;20.51;68.33;100606.81;5072657;28;20436;-63
2023/05/08 01:34:23;;;;;;;2.30;1.50;;;;;;;20.51;67.93;100605.97;5072432;28;20545;-62
2023/05/08 01:37:10;;;;;;;2.23;1.30;;;;;;;20.50;67.77;100599.44;5074309;28;20441;-62
2023/05/08 01:40:07;;;;;;;2.00;1.30;;;;;;;20.51;68.14;100600.25;5054412;28;20405;-63
2023/05/08 01:42:42;;;;;;;2.43;1.50;;;;;;;20.49;67.83;100606.38;5058704;28;20441;-63
2023/05/08 01:45:21;;;;;;;2.43;1.27;;;;;;;20.49;68.26;100594.91;5054023;28;20413;-62
2023/05/08 01:47:50;;;;;;;3.20;1.27;;;;;;;20.49;67.84;100599.81;5073848;28;20522;-62
2023/05/08 01:50:20;;;;;;;2.60;1.50;;;;;;;20.49;68.09;100602.69;5072014;28;20421;-63
2023/05/08 01:52:50;;;;;;;2.07;1.27;;;;;;;20.49;67.70;100602.69;5057020;28;20448;-63
2023/05/08 01:55:20;;;;;;;3.50;1.40;;;;;;;20.49;67.95;100602.69;5071131;28;20469;-61
2023/05/08 01:57:50;;;;;;;2.00;1.30;;;;;;;20.48;67.96;100599.00;5056051;28;20443;-63
2023/05/08 02:00:17;;;;;;;1.90;1.20;;;;;;;20.48;67.82;100607.59;5054064;28;20394;-62
2023/05/08 02:02:42;;;;;;;2.70;1.43;;;;;;;20.49;68.24;100600.66;5036513;28;20691;-62
2023/05/08 02:05:08;;;;;;;2.30;1.30;;;;;;;20.48;67.95;100604.75;5038973;28;20433;-62
2023/05/08 02:07:36;;;;;;;2.33;1.10;;;;;;;20.49;67.79;100599.81;5072863;28;20524;-62
2023/05/08 02:10:03;;;;;;;2.90;1.50;;;;;;;20.48;67.74;100607.59;5041368;28;20443;-62
2023/05/08 02:12:28;;;;;;;2.00;1.30;;;;;;;20.49;67.96;100603.53;5063775;28;21285;-62
2023/05/08 02:14:54;;;;;;;2.07;1.20;;;;;;;20.47;68.07;100603.06;5053014;28;20575;-63
2023/05/08 02:17:19;;;;;;;1.80;1.10;;;;;;;20.48;68.22;100609.63;5071237;28;20178;-61
2023/05/08 02:19:45;;;;;;;2.63;1.50;;;;;;;20.47;67.98;100605.94;5062890;28;20179;-62
2023/05/08 02:22:10;;;;;;;3.93;1.47;;;;;;;20.48;67.63;100598.16;5055051;28;20250;-62
2023/05/08 02:24:36;;;;;;;2.60;1.40;;;;;;;20.48;67.98;100604.75;5071667;28;20179;-63
2023/05/08 02:27:01;;;;;;;2.20;1.50;;;;;;;20.47;67.78;100603.06;5039773;28;20190;-62
2023/05/08 02:29:27;;;;;;;2.40;1.30;;;;;;;20.48;67.71;100609.63;5091290;28;20159;-62
2023/05/08 02:31:53;;;;;;;3.50;1.50;;;;;;;20.46;67.77;100607.16;5069529;28;20186;-63
2023/05/08 02:34:18;;;;;;;2.77;1.33;;;;;;;20.48;67.49;100613.34;5091406;28;21398;-62
2023/05/08 02:36:44;;;;;;;2.40;1.40;;;;;;;20.46;67.98;100607.16;5068972;28;20183;-62
2023/05/08 02:39:10;;;;;;;1.90;1.27;;;;;;;20.48;67.96;100618.25;5073031;28;20588;-63
2023/05/08 02:41:36;;;;;;;2.00;1.30;;;;;;;20.47;67.98;100608.00;5078686;28;20228;-62
2023/05/08 02:44:01;;;;;;;3.37;1.50;;;;;;;20.48;67.84;100619.09;5052617;28;20414;-62
2023/05/08 02:47:04;;;;;;;2.43;1.50;;;;;;;20.48;67.73;100618.25;5069695;28;20160;-62
2023/05/08 02:49:47;;;;;;;4.03;1.60;;;;;;;20.47;68.15;100614.53;5049632;28;20170;-62
2023/05/08 02:52:16;;;;;;;2.23;1.27;;;;;;;20.47;67.88;100617.41;5051263;28;20403;-62
2023/05/08 02:54:59;;;;;;;2.40;1.47;;;;;;;20.47;67.73;100614.53;5053633;28;20461;-62
2023/05/08 02:57:36;;;;;;;2.60;1.10;;;;;;;20.47;67.61;100619.47;5069700;28;20417;-62
2023/05/08 03:00:14;;;;;;;2.27;1.37;;;;;;;20.47;67.70;100620.28;5070253;28;20487;-62
2023/05/08 03:02:41;;;;;;;2.50;1.27;;;;;;;20.47;67.78;100622.34;5059190;28;20489;-62
2023/05/08 03:05:28;;;;;;;2.37;1.10;;;;;;;20.47;67.87;100619.47;5072397;28;20416;-62
2023/05/08 03:07:54;;;;;;;2.70;1.20;;;;;;;20.45;67.54;100610.41;5059327;28;20467;-62
2023/05/08 03:10:20;;;;;;;2.00;1.17;;;;;;;20.46;68.06;100614.94;5052828;28;20440;-62
2023/05/08 03:12:48;;;;;;;2.63;1.30;;;;;;;20.45;67.73;100611.25;5046854;28;20875;-63
2023/05/08 03:15:31;;;;;;;1.90;1.20;;;;;;;20.47;67.42;100610.84;5070338;28;20515;-62
2023/05/08 03:17:59;;;;;;;2.13;1.20;;;;;;;20.46;67.63;100600.59;5052472;28;20474;-62
2023/05/08 03:20:25;;;;;;;1.93;1.10;;;;;;;20.46;67.47;100601.41;5072456;28;20437;-63
2023/05/08 03:22:51;;;;;;;4.90;1.47;;;;;;;20.46;67.67;100607.16;5037361;28;20525;-62
2023/05/08 03:25:18;;;;;;;1.90;1.10;;;;;;;20.46;67.50;100604.28;5070420;28;20216;-62
2023/05/08 03:27:44;;;;;;;2.80;1.57;;;;;;;20.46;67.82;100609.22;5072305;28;20545;-62
2023/05/08 03:30:10;;;;;;;1.80;1.20;;;;;;;20.46;67.84;100606.34;5052040;28;20421;-62
2023/05/08 03:32:36;;;;;;;2.60;1.47;;;;;;;20.44;67.71;100615.31;5070130;28;20437;-63
2023/05/08 03:35:02;;;;;;;2.17;1.10;;;;;;;20.45;67.71;100614.09;5037301;28;21069;-62
2023/05/08 03:37:28;;;;;;;2.10;1.20;;;;;;;20.45;67.79;100616.97;5032154;28;20287;-62
2023/05/08 03:39:56;;;;;;;2.83;1.40;;;;;;;20.45;67.58;100616.97;5059269;28;20806;-62
2023/05/08 03:42:25;;;;;;;1.90;1.20;;;;;;;20.45;67.83;100619.84;5066527;28;20175;-63
2023/05/08 03:44:50;;;;;;;2.10;1.30;;;;;;;20.46;67.73;100612.06;5069797;28;20413;-62
2023/05/08 03:47:20;;;;;;;2.10;1.20;;;;;;;20.44;67.82;100609.59;5071286;28;20529;-62
2023/05/08 03:49:46;;;;;;;2.40;1.20;;;;;;;20.44;68.04;100612.47;5069593;28;20163;-61
2023/05/08 03:52:12;;;;;;;2.07;1.30;;;;;;;20.44;67.81;100621.06;5055275;28;20478;-63
2023/05/08 03:54:37;;;;;;;1.80;1.03;;;;;;;20.45;67.46;100619.84;5069257;28;20292;-62
2023/05/08 03:57:03;;;;;;;1.77;1.00;;;;;;;20.45;67.66;100621.88;5069554;28;20397;-62
2023/05/08 03:59:47;;;;;;;2.17;1.20;;;;;;;20.44;67.77;100621.06;5033430;28;20218;-63
2023/05/08 04:02:16;;;;;;;2.80;1.40;;;;;;;20.44;67.91;100621.06;5061565;28;20182;-62
2023/05/08 04:04:43;;;;;;;1.87;1.23;;;;;;;20.43;67.56;100622.28;5078726;28;20440;-63
2023/05/08 04:07:14;;;;;;;1.80;1.10;;;;;;;20.43;67.67;100619.41;5071674;28;20528;-62
2023/05/08 04:09:50;;;;;;;2.30;1.40;;;;;;;20.44;67.79;100621.06;5074945;28;20466;-62
2023/05/08 04:12:21;;;;;;;1.60;1.00;;;;;;;20.44;67.83;100623.09;5034507;28;20503;-62
2023/05/08 04:14:55;;;;;;;1.97;1.50;;;;;;;20.44;67.46;100620.22;5086109;28;20483;-62
2023/05/08 04:17:33;;;;;;;2.63;1.57;;;;;;;20.43;67.55;100619.41;5071793;28;20400;-63
2023/05/08 04:20:01;;;;;;;1.83;1.10;;;;;;;20.44;67.38;100625.97;5077417;28;20775;-63
2023/05/08 04:22:26;;;;;;;1.97;1.10;;;;;;;20.43;67.47;100625.16;5034632;28;20440;-62
2023/05/08 04:24:52;;;;;;;1.90;1.13;;;;;;;20.44;67.85;100637.44;5048914;28;20413;-63
2023/05/08 04:27:17;;;;;;;2.67;1.17;;;;;;;20.43;67.79;100635.78;5067329;28;20179;-62
2023/05/08 04:29:43;;;;;;;2.00;1.40;;;;;;;20.44;67.72;100634.56;5080833;28;20182;-63
2023/05/08 04:32:08;;;;;;;2.50;1.40;;;;;;;20.42;67.95;100634.94;5088996;28;20197;-62
2023/05/08 04:34:34;;;;;;;2.70;1.20;;;;;;;20.43;67.92;100630.88;5059873;28;20207;-62
2023/05/08 04:36:59;;;;;;;2.13;1.33;;;;;;;20.43;67.67;100630.88;5072784;28;20174;-62
2023/05/08 04:39:25;;;;;;;2.60;1.40;;;;;;;20.43;67.54;100630.88;5072757;28;20174;-62
2023/05/08 04:41:51;;;;;;;2.20;1.20;;;;;;;20.43;67.52;100636.63;5072269;28;20225;-62
2023/05/08 04:44:16;;;;;;;2.50;1.43;;;;;;;20.44;67.73;100640.28;5084138;28;20186;-62
2023/05/08 04:46:42;;;;;;;1.77;1.17;;;;;;;20.42;67.97;100643.53;5068939;28;20483;-63
2023/05/08 04:49:07;;;;;;;1.90;1.20;;;;;;;20.42;68.02;100637.81;5075743;28;20185;-62
2023/05/08 04:51:33;;;;;;;1.90;1.30;;;;;;;20.42;67.66;100640.69;5072126;28;20171;-62
2023/05/08 04:53:59;;;;;;;2.23;1.20;;;;;;;20.44;67.37;100646.03;5049819;28;20231;-62
2023/05/08 04:56:25;;;;;;;1.70;1.00;;;;;;;20.42;67.50;100645.59;5052403;28;20187;-63
2023/05/08 04:58:51;;;;;;;2.03;1.20;;;;;;;20.43;67.67;100642.34;5073132;28;20192;-62
2023/05/08 05:01:16;;;;;;;2.10;1.30;;;;;;;20.43;67.73;100641.53;5085989;28;20436;-62
2023/05/08 05:03:41;;;;;;;2.30;1.50;;;;;;;20.42;67.55;100652.16;5072797;28;20152;-62
2023/05/08 05:06:07;;;;;;;1.80;1.20;;;;;;;20.42;67.41;100645.59;5073088;28;20159;-62
2023/05/08 05:08:32;;;;;;;1.87;1.10;;;;;;;20.41;67.68;100659.09;5073171;28;20198;-62
2023/05/08 05:10:58;;;;;;;2.07;1.10;;;;;;;20.43;67.65;100653.00;5074642;28;20179;-62
2023/05/08 05:13:23;;;;;;;1.97;1.00;;;;;;;20.42;67.50;100657.06;5059610;28;20194;-62
2023/05/08 05:15:52;;;;;;;1.77;0.93;;;;;;;20.43;67.48;100661.59;5092585;28;20227;-62
2023/05/08 05:18:18;;;;;;;1.90;1.07;;;;;;;20.42;67.56;100660.75;5090473;28;20206;-62
2023/05/08 05:20:44;;;;;;;2.13;1.33;;;;;;;20.42;67.97;100657.06;5092965;28;20440;-62
2023/05/08 05:23:10;;;;;;;2.30;1.30;;;;;;;20.42;67.60;100662.81;5082876;28;20239;-62
2023/05/08 05:25:36;;;;;;;1.70;1.10;;;;;;;20.43;67.43;100675.94;5072071;28;20455;-61
2023/05/08 05:28:01;;;;;;;2.07;1.17;;;;;;;20.42;67.73;100675.09;5056902;28;20194;-63
2023/05/08 05:30:27;;;;;;;2.10;0.90;;;;;;;20.42;67.85;100672.22;5072520;28;20168;-63
2023/05/08 05:32:52;;;;;;;1.87;1.20;;;;;;;20.41;67.57;100667.72;5054353;28;20639;-63
2023/05/08 05:35:18;;;;;;;1.70;0.90;;;;;;;20.42;67.60;100675.09;5074383;28;20560;-63
2023/05/08 05:37:43;;;;;;;1.70;1.10;;;;;;;20.43;67.56;100675.94;5071843;28;20857;-63
2023/05/08 05:40:11;;;;;;;1.87;1.20;;;;;;;20.43;67.65;100681.66;5070477;28;20503;-63
2023/05/08 05:42:37;;;;;;;2.07;1.10;;;;;;;20.42;67.57;100677.97;5073610;28;20185;-63
2023/05/08 05:45:03;;;;;;;1.90;1.17;;;;;;;20.42;67.68;100683.69;5070953;28;20394;-63
2023/05/08 05:47:28;;;;;;;1.80;1.10;;;;;;;20.41;67.47;100679.19;5070493;28;20258;-63
2023/05/08 05:49:53;;;;;;;2.00;1.20;;;;;;;20.42;67.68;100691.50;5055249;28;20190;-63
2023/05/08 05:52:19;;;;;;;1.77;1.10;;;;;;;20.42;67.26;100691.50;5071087;28;20179;-63
2023/05/08 05:54:45;;;;;;;1.73;0.90;;;;;;;20.42;67.63;100692.31;5071433;28;20199;-62
2023/05/08 05:57:12;;;;;;;2.30;1.00;;;;;;;20.41;67.92;100682.03;5071436;28;20168;-62
2023/05/08 05:59:38;;;;;;;1.97;1.20;;;;;;;20.42;67.46;100685.75;5073666;28;20425;-63
2023/05/08 06:02:03;;;;;;;1.77;1.20;;;;;;;20.41;67.50;100687.78;5071321;28;20781;-63
2023/05/08 06:04:29;;;;;;;2.77;1.20;;;;;;;20.41;67.35;100684.91;5053392;28;20171;-63
2023/05/08 06:06:54;;;;;;;2.17;1.00;;;;;;;20.39;67.69;100684.50;5072894;28;20253;-60
2023/05/08 06:09:19;;;;;;;1.80;0.90;;;;;;;20.40;67.54;100688.16;5075773;28;20206;-60
2023/05/08 06:11:46;;;;;;;2.67;1.40;;;;;;;20.42;67.70;100694.34;5053485;28;20630;-61
2023/05/08 06:14:11;;;;;;;1.90;0.90;;;;;;;20.41;67.57;100690.66;5073316;28;20229;-61
2023/05/08 06:16:37;;;;;;;1.97;1.23;;;;;;;20.41;67.18;100690.66;5057909;28;20631;-60
2023/05/08 06:19:02;;;;;;;2.57;1.00;;;;;;;20.41;67.50;100696.38;5061933;28;20657;-60
2023/05/08 06:21:28;;;;;;;2.33;1.17;;;;;;;20.41;67.35;100696.38;5071515;28;20530;-61
2023/05/08 06:23:53;;;;;;;2.27;1.20;;;;;;;20.41;67.35;100699.25;5087214;28;20531;-61
2023/05/08 06:26:20;;;;;;;1.77;1.10;;;;;;;20.41;67.41;100696.38;5091440;28;20600;-61
2023/05/08 06:28:45;;;;;;;2.10;1.30;;;;;;;20.42;67.30;100700.09;5086861;28;20216;-61
2023/05/08 06:31:11;;;;;;;2.00;1.10;;;;;;;20.41;67.46;100705.00;5071683;28;20427;-61
2023/05/08 06:33:36;;;;;;;3.43;1.40;;;;;;;20.41;67.58;100701.31;5050992;28;20195;-61
2023/05/08 06:36:05;;;;;;;2.20;1.10;;;;;;;20.41;67.37;100707.06;5051149;28;20175;-61
2023/05/08 06:38:31;;;;;;;2.43;1.10;;;;;;;20.40;67.42;100711.94;5071316;28;20298;-61
2023/05/08 06:40:56;;;;;;;2.10;1.40;;;;;;;20.41;67.25;100702.13;5073914;28;20515;-61
2023/05/08 06:43:22;;;;;;;2.40;1.17;;;;;;;20.41;67.15;100709.91;5073078;28;20183;-61
2023/05/08 06:45:47;;;;;;;1.70;0.80;;;;;;;20.40;67.07;100700.47;5064612;28;20218;-61
2023/05/08 06:48:13;;;;;;;1.57;0.97;;;;;;;20.40;67.68;100703.34;5033219;28;20249;-61
2023/05/08 06:50:39;;;;;;;1.93;1.10;;;;;;;20.41;67.50;100701.31;5052488;28;20183;-61
2023/05/08 06:53:05;;;;;;;2.03;1.13;;;;;;;20.40;67.32;100706.22;5071370;28;20187;-62
2023/05/08 06:55:31;;;;;;;2.10;1.17;;;;;;;20.40;67.54;100697.59;5070531;28;20449;-61
2023/05/08 06:57:57;;;;;;;1.70;1.00;;;;;;;20.41;67.18;100701.31;5070150;28;20799;-62
2023/05/08 07:00:22;;;;;;;1.87;1.03;;;;;;;20.41;67.57;100702.13;5080319;28;20173;-61
2023/05/08 07:02:47;;;;;;;1.70;1.17;;;;;;;20.40;67.20;100700.47;5074228;28;20232;-61
2023/05/08 07:05:13;;;;;;;1.70;1.13;;;;;;;20.41;67.72;100707.06;5070586;28;20264;-61
2023/05/08 07:07:41;;;;;;;1.80;1.10;;;;;;;20.41;67.48;100698.44;5070345;28;20195;-61
2023/05/08 07:10:07;;;;;;;1.70;1.10;;;;;;;20.40;67.38;100703.34;5070425;28;20627;-60
2023/05/08 07:12:32;;;;;;;2.43;1.20;;;;;;;20.41;67.15;100696.38;5075013;28;20433;-61
2023/05/08 07:14:58;;;;;;;1.70;0.90;;;;;;;20.41;67.24;100705.00;5065325;28;20753;-63
2023/05/08 07:17:23;;;;;;;1.87;1.20;;;;;;;20.40;67.61;100706.22;5062258;28;20558;-62
2023/05/08 07:19:49;;;;;;;1.70;0.90;;;;;;;20.41;67.57;100713.59;5050430;28;20183;-62
2023/05/08 07:22:15;;;;;;;1.77;0.97;;;;;;;20.41;67.57;100713.59;5034627;28;20186;-63
2023/05/08 07:24:41;;;;;;;1.73;1.07;;;;;;;20.41;67.27;100710.72;5070933;28;20437;-63
2023/05/08 07:27:07;;;;;;;1.70;1.00;;;;;;;20.41;67.24;100705.00;5089232;28;20182;-62
2023/05/08 07:29:34;;;;;;;1.60;0.90;;;;;;;20.40;67.45;100705.38;5072340;28;20178;-62
2023/05/08 07:32:00;;;;;;;1.80;0.90;;;;;;;20.40;66.93;100706.22;5090481;28;20413;-62
2023/05/08 07:34:26;;;;;;;2.10;1.20;;;;;;;20.41;67.35;100707.06;5086378;28;20649;-62
2023/05/08 07:36:51;;;;;;;1.90;1.00;;;;;;;20.42;67.44;100708.69;5090302;28;20178;-63
2023/05/08 07:39:16;;;;;;;1.80;1.00;;;;;;;20.40;67.55;100703.34;5090033;28;20179;-62
2023/05/08 07:41:42;;;;;;;1.80;0.93;;;;;;;20.41;67.50;100707.06;5089751;28;20162;-62
2023/05/08 07:44:08;;;;;;;1.77;1.00;;;;;;;20.40;67.40;100709.06;5071555;28;20183;-62
2023/05/08 07:46:33;;;;;;;1.60;1.03;;;;;;;20.42;67.17;100709.50;5070135;28;20190;-62
2023/05/08 07:48:59;;;;;;;1.90;0.80;;;;;;;20.42;67.48;100714.44;5070056;28;20292;-63
2023/05/08 07:51:25;;;;;;;2.23;1.30;;;;;;;20.41;67.50;100709.91;5069992;28;20175;-62
2023/05/08 07:53:51;;;;;;;1.80;1.03;;;;;;;20.42;67.42;100715.25;5071509;28;20275;-62
2023/05/08 07:56:16;;;;;;;2.00;1.23;;;;;;;20.42;67.48;100714.44;5069774;28;20409;-62
2023/05/08 07:58:44;;;;;;;2.47;1.20;;;;;;;20.43;67.14;100716.09;5069616;28;20167;-63
2023/05/08 08:01:10;;;;;;;2.50;1.20;;;;;;;20.42;67.37;100715.25;5071133;28;20250;-62
2023/05/08 08:03:36;;;;;;;1.83;1.00;;;;;;;20.42;67.66;100714.44;5069868;28;20409;-62
2023/05/08 08:06:01;;;;;;;2.00;1.10;;;;;;;20.42;67.50;100712.38;5052531;28;20179;-63
2023/05/08 08:08:27;;;;;;;2.03;1.30;;;;;;;20.42;67.44;100709.50;5069143;28;20233;-62
2023/05/08 08:10:52;;;;;;;1.80;1.17;;;;;;;20.42;67.02;100715.25;5071314;28;20943;-62
2023/05/08 08:13:18;;;;;;;2.27;1.23;;;;;;;20.42;67.20;100709.50;5068828;28;20194;-63
2023/05/08 08:15:43;;;;;;;2.00;1.20;;;;;;;20.43;67.19;100713.22;5071832;28;20235;-62
2023/05/08 08:18:09;;;;;;;1.77;1.27;;;;;;;20.42;67.55;100706.63;5082620;28;20196;-62
2023/05/08 08:20:34;;;;;;;1.80;1.00;;;;;;;20.42;67.60;100712.38;5089748;28;20162;-63
2023/05/08 08:22:59;;;;;;;2.50;1.40;;;;;;;20.43;67.14;100711.19;5081482;28;20237;-62
2023/05/08 08:25:26;;;;;;;1.93;1.23;;;;;;;20.42;67.52;100712.38;5068695;28;20217;-63
2023/05/08 08:27:52;;;;;;;1.60;0.90;;;;;;;20.42;67.51;100711.56;5071883;28;20175;-62
2023/05/08 08:30:17;;;;;;;1.70;0.90;;;;;;;20.43;67.64;100716.09;5071251;28;20445;-62
2023/05/08 08:32:42;;;;;;;1.93;1.10;;;;;;;20.43;67.65;100721.81;5069708;28;20179;-62
2023/05/08 08:35:08;;;;;;;1.90;1.10;;;;;;;20.41;67.40;100719.34;5051700;28;20206;-63
2023/05/08 08:37:34;;;;;;;1.83;1.10;;;;;;;20.43;67.57;100725.53;5033814;28;20194;-62
2023/05/08 08:40:00;;;;;;;2.10;1.30;;;;;;;20.43;67.49;100725.53;5083147;28;20273;-62
2023/05/08 08:42:25;;;;;;;2.20;1.33;;;;;;;20.44;67.44;100724.31;5082877;28;20222;-63
2023/05/08 08:44:51;;;;;;;1.90;1.20;;;;;;;20.43;67.60;100722.66;5071275;28;20531;-62
2023/05/08 08:47:17;;;;;;;1.90;1.17;;;;;;;20.44;67.57;100723.47;5054274;28;20188;-61
2023/05/08 08:49:47;;;;;;;1.50;0.80;;;;;;;20.44;67.63;100718.56;5049045;28;20659;-62
2023/05/08 08:52:25;;;;;;;1.60;1.00;;;;;;;20.45;67.55;100713.66;5040744;28;20474;-62
2023/05/08 08:54:51;;;;;;;2.30;1.10;;;;;;;20.45;67.38;100713.66;5059394;28;20536;-62
2023/05/08 08:57:17;;;;;;;2.93;1.30;;;;;;;20.44;67.43;100715.72;5071107;28;20962;-62
2023/05/08 08:59:43;;;;;;;1.83;1.00;;;;;;;20.46;67.42;100718.19;5050641;28;20301;-62
2023/05/08 09:02:10;;;;;;;1.67;0.97;;;;;;;20.45;67.35;100720.22;5089420;28;20944;-62
2023/05/08 09:04:36;;;;;;;1.60;0.97;;;;;;;20.47;67.29;100725.59;5084509;28;20440;-62
2023/05/08 09:07:04;;;;;;;2.00;1.00;;;;;;;20.47;67.04;100726.41;5059696;28;20435;-62
2023/05/08 09:09:29;;;;;;;1.50;0.90;;;;;;;20.47;67.26;100728.44;5068997;28;20432;-63
2023/05/08 09:11:55;;;;;;;1.90;1.10;;;;;;;20.45;67.59;100728.84;5071923;28;20437;-62
2023/05/08 09:14:20;;;;;;;2.83;1.10;;;;;;;20.46;67.30;100727.63;5068998;28;20229;-62
2023/05/08 09:16:46;;;;;;;1.70;1.00;;;;;;;20.46;67.05;100724.75;5069389;28;20181;-62
2023/05/08 09:19:13;;;;;;;1.57;0.80;;;;;;;20.46;67.14;100724.75;5088318;28;20614;-62
2023/05/08 09:21:38;;;;;;;1.77;1.13;;;;;;;20.47;66.98;100722.72;5073753;28;20183;-62
2023/05/08 09:24:04;;;;;;;2.00;0.97;;;;;;;20.46;67.49;100727.63;5072257;28;20428;-63
2023/05/08 09:26:33;;;;;;;1.60;1.10;;;;;;;20.48;67.33;100730.09;5074503;28;20241;-61
2023/05/08 09:29:08;;;;;;;1.90;1.10;;;;;;;20.47;66.89;100732.13;5072474;28;20163;-62
2023/05/08 09:31:34;;;;;;;1.80;0.90;;;;;;;20.46;67.27;100724.75;5074354;28;20812;-62
2023/05/08 09:33:59;;;;;;;1.90;1.17;;;;;;;20.47;67.31;100732.13;5072218;28;20468;-62
2023/05/08 09:36:28;;;;;;;1.80;1.10;;;;;;;20.47;67.04;100725.59;5072224;28;20412;-62
2023/05/08 09:38:53;;;;;;;1.73;1.10;;;;;;;20.46;67.14;100727.63;5072143;28;20186;-62
2023/05/08 09:41:20;;;;;;;1.70;1.00;;;;;;;20.47;67.21;100735.00;5074280;28;20448;-62
2023/05/08 09:44:00;;;;;;;1.90;1.10;;;;;;;20.48;67.19;100744.44;5071406;28;20209;-62
2023/05/08 09:46:25;;;;;;;1.57;0.80;;;;;;;20.48;66.87;100744.44;5072202;28;20796;-62
2023/05/08 09:48:52;;;;;;;1.83;1.07;;;;;;;20.48;66.96;100736.69;5072437;28;20422;-62
2023/05/08 09:51:18;;;;;;;1.83;1.03;;;;;;;20.48;67.17;100745.28;5073995;28;20253;-62
2023/05/08 09:53:43;;;;;;;1.80;0.97;;;;;;;20.48;66.85;100728.06;5071582;28;20513;-62
2023/05/08 09:56:09;;;;;;;1.60;0.90;;;;;;;20.49;66.86;100738.34;5072899;28;20183;-63
2023/05/08 09:58:41;;;;;;;1.70;1.00;;;;;;;20.48;66.87;100730.09;5071198;28;20240;-62
2023/05/08 10:01:07;;;;;;;2.27;1.20;;;;;;;20.49;67.01;100731.75;5069863;28;20260;-62
2023/05/08 10:03:48;;;;;;;1.60;0.93;;;;;;;20.50;67.05;100739.97;5070855;28;20438;-62
2023/05/08 10:06:14;;;;;;;1.90;1.10;;;;;;;20.49;66.83;100743.22;5050851;28;20422;-62
2023/05/08 10:08:39;;;;;;;1.70;0.90;;;;;;;20.49;66.41;100743.22;5037729;28;20506;-62
2023/05/08 10:11:18;;;;;;;1.90;1.10;;;;;;;20.49;66.99;100741.19;5066630;28;20869;-62
2023/05/08 10:13:46;;;;;;;2.00;1.03;;;;;;;20.49;67.20;100732.59;5076312;28;20297;-63
2023/05/08 10:16:16;;;;;;;2.23;1.20;;;;;;;20.51;66.87;100740.78;5055074;28;20898;-62
2023/05/08 10:18:49;;;;;;;1.60;0.90;;;;;;;20.51;67.06;100732.19;5071606;28;20923;-62
2023/05/08 10:21:15;;;;;;;1.50;0.90;;;;;;;20.51;66.85;100737.91;5071208;28;20475;-61
2023/05/08 10:23:44;;;;;;;1.87;1.00;;;;;;;20.53;66.79;100741.25;5074606;28;20440;-62
2023/05/08 10:26:15;;;;;;;2.23;1.17;;;;;;;20.52;66.91;100737.53;5054548;28;20486;-62
2023/05/08 10:28:47;;;;;;;1.90;0.90;;;;;;;20.51;67.19;100738.75;5071476;28;20413;-62
2023/05/08 10:31:13;;;;;;;1.60;1.00;;;;;;;20.51;66.92;100733.03;5071187;28;21111;-62
2023/05/08 10:33:39;;;;;;;2.17;1.20;;;;;;;20.51;66.68;100735.06;5055454;28;20476;-62
2023/05/08 10:36:05;;;;;;;1.93;1.30;;;;;;;20.51;67.26;100729.31;5071252;28;20416;-62
2023/05/08 10:38:31;;;;;;;1.80;0.90;;;;;;;20.52;67.01;100739.59;5072394;28;20799;-62
2023/05/08 10:41:00;;;;;;;1.77;1.13;;;;;;;20.51;67.02;100723.59;5071608;28;20433;-62
2023/05/08 10:43:25;;;;;;;1.60;0.83;;;;;;;20.51;67.02;100726.44;5072261;28;20170;-62
2023/05/08 10:45:51;;;;;;;2.53;0.90;;;;;;;20.49;67.07;100726.84;5021239;28;20925;-62
2023/05/08 10:48:17;;;;;;;1.83;0.90;;;;;;;20.51;67.01;100730.16;5035435;28;20186;-63
2023/05/08 10:50:57;;;;;;;1.90;0.90;;;;;;;20.51;67.09;100723.59;5069320;28;20409;-62
2023/05/08 10:53:32;;;;;;;1.60;1.00;;;;;;;20.49;66.78;100724.00;5069221;28;20252;-63
2023/05/08 10:55:57;;;;;;;1.83;0.90;;;;;;;20.52;67.14;100719.53;5071048;28;20486;-62
2023/05/08 10:58:22;;;;;;;2.00;1.03;;;;;;;20.51;66.83;100721.56;5019996;28;20433;-62
2023/05/08 11:00:51;;;;;;;1.97;1.07;;;;;;;20.52;66.76;100719.53;5081978;28;20190;-62
2023/05/08 11:03:20;;;;;;;1.80;1.00;;;;;;;20.52;66.66;100710.91;5090817;28;20189;-62
2023/05/08 11:05:46;;;;;;;1.70;0.90;;;;;;;20.52;66.74;100716.66;5087352;28;20435;-62
2023/05/08 11:08:16;;;;;;;2.37;1.00;;;;;;;20.52;67.01;100714.59;5053159;28;20441;-63
2023/05/08 11:10:43;;;;;;;1.70;0.90;;;;;;;20.53;67.15;100715.44;5073222;28;20452;-63
2023/05/08 11:13:08;;;;;;;1.93;1.27;;;;;;;20.52;66.90;100711.72;5065815;28;20557;-62
2023/05/08 11:15:38;;;;;;;1.70;1.10;;;;;;;20.54;66.67;100712.19;5072338;28;20518;-62
2023/05/08 11:18:10;;;;;;;1.70;1.10;;;;;;;20.55;66.98;100707.25;5084416;28;20193;-62
2023/05/08 11:20:39;;;;;;;1.90;1.10;;;;;;;20.56;66.72;100715.50;5070001;28;20886;-62
2023/05/08 11:23:23;;;;;;;2.00;1.10;;;;;;;20.58;67.03;100704.44;5052248;28;20528;-63
2023/05/08 11:26:04;;;;;;;1.60;0.90;;;;;;;20.58;66.61;100704.44;5087011;28;20424;-61
2023/05/08 11:28:39;;;;;;;2.13;1.30;;;;;;;20.59;66.58;100696.69;5089416;28;20479;-62